Nearby METAR Reports

CWGD - Goderich (autob), Ontario, Canada
Distance from station: SW 47km
Updated: 02/25/2018 6:00am

 Wind from SE
Wind: SE 33 km/h, Gust: 48 km/h
Temperature: 5°C
Wind Chill: 0°C
Dew Point: 4°C
Humidity: 93%
2018/02/25 11:00 CWGD 251100Z AUTO 14018G26KT 05/04 RMK AO1 4PAST HR 6047 PK WND 14032/1007 SLP969 P0002 T00470038 50004
CWLS - Mount Forest(Mar, Ontario, Canada
Distance from station: ESE 53km
Updated: 02/25/2018 6:00am

 Wind from SE
Wind: SE 13 km/h, Gust: 31 km/h
Temperature: 1°C
Wind Chill: -3°C
Dew Point: 1°C
Humidity: 100%
2018/02/25 11:00 CWLS 251100Z AUTO 13007G17KT 01/01 RMK AO1 PK WND 12021/1000 SLP999 T00120011 56059
 
CYVV - Wiarton Air, Ontario, Canada
Distance from station: NNE 75km
Updated: 02/25/2018 6:00am
Light rain, Overcast
Light rain, Overcast
 Wind from SE
Wind: SE 30 km/h, Gust: 50 km/h
Temperature: 2°C
Wind Chill: -3°C
Dew Point: 2°C
Humidity: 100%
Barometer: 996.6 hPa
Summary: Light rain
Clouds: Overcast
Visibility: 8 km
Cloud details: Overcast 274 m
2018/02/25 11:00 CYVV 251100Z 13016G27KT 5SM -RA OVC009 02/02 A2943 RMK SF8 PRESFR SLP976
CZEL - Elora Rcs, Ontario, Canada
Distance from station: ESE 93km
Updated: 02/25/2018 6:00am

 Wind from E
Wind: E 26 km/h, Gust: 37 km/h
Temperature: 1°C
Wind Chill: -4°C
Dew Point: 0°C
Humidity: 93%
2018/02/25 11:00 CZEL 251100Z AUTO 10014G20KT 01/M00 RMK AO1 8051 PK WND 10021/1011 SLP019 T00051001 50006
 
CWCO - Collingwood (aut, Ontario, Canada
Distance from station: ENE 104km
Updated: 02/25/2018 6:00am

 Wind from SSE
Wind: SSE 20 km/h, Gust: 35 km/h
Temperature: 2°C
Wind Chill: -3°C
Dew Point: 0°C
Humidity: 87%
2018/02/25 11:00 CWCO 251100Z AUTO 15011G19KT 02/M00 RMK AO1 PRESFR PK WND 15022/1032 SLP012 T00181004 56072
CYKF - Waterloo Well, Ontario, Canada
Distance from station: SE 107km
Updated: 02/25/2018 6:24am
Light rain, Mist, Overcast
Light rain, Mist, Overcast
 Wind from E
Wind: E 13 km/h
Temperature: 1°C
Wind Chill: -3°C
Dew Point: 1°C
Humidity: 100%
Barometer: 1000.7 hPa
Summary: Light rain, Mist
Clouds: Overcast
Visibility: 3 km
Cloud details: Overcast 61 m
2018/02/25 11:24 CYKF 251124Z AUTO 10007KT 2SM -RA BR OVC002 01/01 A2955 RMK SLP018
 
KP58 - Port Hope, Michigan, USA
Distance from station: W 114km
Updated: 02/25/2018 5:51am

 Wind from SSE
Wind: SSE 26 km/h, Gust: 39 km/h
Temperature: 4°C
Wind Chill: -1°C
Dew Point: 4°C
Humidity: 100%
Barometer: 995.3 hPa
2018/02/25 10:51 KP58 251051Z AUTO 16014G21KT 04/04 A2939 RMK AO1 PK WND 14030/0954 SLP959 P0006 T00440039
CYBN - Borden, Ontario, Canada
Distance from station: E 118km
Updated: 02/25/2018 6:13am
Overcast
Overcast
 Wind from SE
Wind: SE 30 km/h, Gust: 41 km/h
Temperature: 1°C
Wind Chill: -5°C
Dew Point: 1°C
Humidity: 100%
Barometer: 1001.4 hPa
Clouds: Overcast
Visibility: 13 km
Cloud details: Overcast 183 m
2018/02/25 11:13 CYBN 251113Z AUTO 13016G22KT 8SM OVC006 01/01 A2957
 
CYXU - London Airport, Ontario, Canada
Distance from station: S 123km
Updated: 02/25/2018 6:00am
Light rain, Mist, Overcast
Light rain, Mist, Overcast
 Wind from SE
Wind: SE 17 km/h, Gust: 28 km/h
Temperature: 4°C
Wind Chill: 0°C
Dew Point: 4°C
Humidity: 100%
Barometer: 999.7 hPa
Summary: Light rain, Mist
Clouds: Overcast
Visibility: 2 km
Cloud details: Overcast 61 m
2018/02/25 11:00 CYXU 251100Z 13009G15KT 2 1/2SM -RA BR OVC002 04/04 A2952 RMK FG1SF7 SLP007
CXET - Egbert Cs, Ontario, Canada
Distance from station: E 128km
Updated: 02/25/2018 6:00am

 Wind from ESE
Wind: ESE 28 km/h, Gust: 44 km/h
Temperature: 1°C
Wind Chill: -5°C
Dew Point: 0°C
Humidity: 93%
2018/02/25 11:00 CXET 251100Z AUTO 12015G24KT 01/M00 RMK AO1 6PAST HR PRESFR SOG 00 6059 PK WND 12028/1011 SLP026 P0002 T00101003 50014
 
CWMZ - Western Isl (map, Ontario, Canada
Distance from station: NE 129km
Updated: 02/25/2018 5:00am
NOT Current

 Wind from ESE
Wind: ESE 59 km/h, Gust: 69 km/h
Temperature: 0°C
Wind Chill: -9°C
Dew Point: -2°C
Humidity: 87%
2018/02/25 10:00 CWMZ 251000Z AUTO 12032G37KT M00/M02 RMK AO1 PRESFR PK WND 12041/0928 SLP019 T10021019 56091
KBAX - Bad Axe, Michigan, USA
Distance from station: WSW 133km
Updated: 02/25/2018 6:15am
Light rain, Overcast
Light rain, Overcast
 Wind from S
Wind: S 30 km/h, Gust: 35 km/h
Temperature: 6°C
Wind Chill: 2°C
Dew Point: 6°C
Humidity: 100%
Barometer: 996.3 hPa
Summary: Light rain
Clouds: Overcast
Visibility: 6 km
Cloud details: Overcast 122 m
2018/02/25 11:15 KBAX 251115Z AUTO 19016G19KT 4SM -RA OVC004 06/06 A2942 RMK AO2 T00570056
 
CWWX - Cove Island (map, Ontario, Canada
Distance from station: NNW 137km
Updated: 02/25/2018 6:00am

 Wind from SSE
Wind: SSE 35 km/h, Gust: 54 km/h
Temperature: 0°C
Wind Chill: -7°C
Dew Point: 0°C
Humidity: 100%
2018/02/25 11:00 CWWX 251100Z AUTO 16019G29KT M00/M00 RMK AO1 PRESFR PK WND 14031/1032 SLP946 T10041001 56096
CYZR - Sarnia Airport, Ontario, Canada
Distance from station: SSW 144km
Updated: 02/25/2018 6:25am
Mist, Overcast
Mist, Overcast
 Wind from SSW
Wind: SSW 24 km/h, Gust: 35 km/h
Temperature: 8°C
Wind Chill: 4°C
Dew Point: 8°C
Humidity: 100%
Barometer: 998.3 hPa
Summary: Mist
Clouds: Overcast
Visibility: 8 km
Cloud details: Overcast 183 m
2018/02/25 11:25 CYZR 251125Z AUTO 20013G19KT 5SM BR OVC006 08/08 A2948 RMK SLP988
 
CXHM - Hamilton Rbg Cs, Ontario, Canada
Distance from station: SE 150km
Updated: 02/25/2018 6:00am

 Wind from ENE
Wind: ENE 9 km/h
Temperature: 2°C
Wind Chill: -1°C
2018/02/25 11:00 CXHM 251100Z AUTO 07005KT 02/ RMK AO1 4PAST HR PRESFR 7060 SLP023 P0002 T0023 50048
CYYZ - Toronto/Pearson, Ontario, Canada
Distance from station: ESE 150km
Updated: 02/25/2018 6:00am
Light rain, Overcast
Light rain, Overcast
 Wind from E
Wind: E 26 km/h, Gust: 43 km/h
Temperature: 2°C
Wind Chill: -3°C
Dew Point: 1°C
Humidity: 93%
Barometer: 1002.7 hPa
Summary: Light rain
Clouds: Overcast
Visibility: 8 km
Cloud details: Overcast 122 m
2018/02/25 11:00 CYYZ 251100Z 09014G23KT 5SM -RA OVC004 02/01 A2961 RMK SC8 PRESFR SLP035
 
CXBI - Barrie-Oro, Ontario, Canada
Distance from station: ENE 151km
Updated: 02/25/2018 6:00am

 Wind from ESE
Wind: ESE 11 km/h
Temperature: 0°C
Wind Chill: -4°C
Dew Point: -1°C
Humidity: 93%
2018/02/25 11:00 CXBI 251100Z AUTO 12006KT M00/M01 RMK AO1 2PAST HR PRESFR SOG 06 7056 SLP045 P0001 T10011009 50002
CXDI - Delhi Cs (aut), Ontario, Canada
Distance from station: SSE 154km
Updated: 02/25/2018 6:00am

 Wind from SE
Wind: SE 6 km/h
Temperature: 6°C
Dew Point: 5°C
Humidity: 93%
2018/02/25 11:00 CXDI 251100Z AUTO 13003KT 06/05 RMK AO1 8027 SLP011 T00580053 50059
 
CWWB - Burlington Piers, Ontario, Canada
Distance from station: SE 157km
Updated: 02/25/2018 6:00am

 
Temperature: 2°C
Dew Point: 2°C
Humidity: 100%
2018/02/25 11:00 CWWB 251100Z AUTO 02/02 RMK AO1 SLP035 T00240018 56059
CYHM - Hamilton Airport, Ontario, Canada
Distance from station: SE 157km
Updated: 02/25/2018 6:20am
Light rain, Mist, Overcast
Light rain, Mist, Overcast
 Wind from NE
Wind: NE 19 km/h
Temperature: 1°C
Wind Chill: -4°C
Dew Point: 1°C
Humidity: 100%
Barometer: 1001.7 hPa
Summary: Light rain, Mist
Clouds: Overcast
Visibility: 2 km
Cloud details: Mostly cloudy 61 m
Overcast 274 m
2018/02/25 11:20 CYHM 251120Z 05010KT 1SM R12/4000VP6000FT/U -RA BR BKN002 OVC009 01/01 A2958 RMK FG3SF3SC2 SLP027